createdAt,value
2022-08-03T00:02:10.114Z,59.71
2022-08-03T00:05:33.458Z,60.32
2022-08-03T00:08:57.767Z,60.71
2022-08-03T00:12:19.537Z,60.85
2022-08-03T00:15:45.362Z,61.32
2022-08-03T00:19:09.048Z,61.31
2022-08-03T00:22:31.593Z,61.77
2022-08-03T00:25:56.872Z,62.08
2022-08-03T00:29:20.772Z,62.19
2022-08-03T00:32:45.124Z,62.38
2022-08-03T00:36:07.305Z,62.55
2022-08-03T00:39:33.781Z,62.27
2022-08-03T00:42:59.814Z,62.31
2022-08-03T00:46:22.680Z,62.00
2022-08-03T00:49:49.492Z,62.07
2022-08-03T00:53:14.501Z,61.37
2022-08-03T00:56:39.106Z,61.56
2022-08-03T01:00:24.941Z,61.28
2022-08-03T01:03:48.760Z,61.14
2022-08-03T01:07:21.887Z,60.86
2022-08-03T01:11:06.470Z,60.93
2022-08-03T01:14:35.388Z,61.05
2022-08-03T01:18:06.294Z,60.88
2022-08-03T01:21:33.367Z,61.03
2022-08-03T01:25:17.417Z,60.80
2022-08-03T01:28:58.399Z,61.03
2022-08-03T01:32:59.109Z,61.35
2022-08-03T01:36:26.788Z,61.60
2022-08-03T01:39:57.551Z,61.48
2022-08-03T01:44:27.760Z,61.45
2022-08-03T01:47:10.708Z,61.35
2022-08-03T01:50:34.538Z,61.59
2022-08-03T01:53:58.874Z,61.46
2022-08-03T01:57:24.086Z,61.20
2022-08-03T02:00:50.178Z,61.69
2022-08-03T02:04:14.587Z,62.30
2022-08-03T02:07:39.829Z,62.14
2022-08-03T02:11:02.598Z,62.20
2022-08-03T02:14:25.012Z,62.22
2022-08-03T02:17:48.546Z,61.95
2022-08-03T02:21:15.376Z,61.61
2022-08-03T02:25:00.711Z,61.97
2022-08-03T02:28:32.130Z,62.05
2022-08-03T02:32:00.529Z,61.89
2022-08-03T02:35:28.057Z,62.08
2022-08-03T02:38:53.785Z,61.62
2022-08-03T02:42:18.865Z,61.41
2022-08-03T02:45:54.459Z,62.01
2022-08-03T02:49:40.583Z,62.71
2022-08-03T02:53:02.085Z,63.18
2022-08-03T02:56:25.727Z,62.62
2022-08-03T02:59:47.830Z,62.39
2022-08-03T03:03:11.169Z,62.47
2022-08-03T03:06:35.710Z,62.17
2022-08-03T03:10:02.270Z,62.02
2022-08-03T03:13:24.401Z,62.37
2022-08-03T03:16:57.671Z,62.39
2022-08-03T03:20:29.303Z,62.81
2022-08-03T03:23:52.637Z,63.27
2022-08-03T03:27:16.820Z,63.52
2022-08-03T03:30:38.727Z,63.80
2022-08-03T03:34:05.156Z,64.34
2022-08-03T03:37:28.447Z,64.60
2022-08-03T03:40:50.342Z,64.65
2022-08-03T03:44:12.080Z,65.40
2022-08-03T03:47:37.054Z,65.75
2022-08-03T03:51:03.380Z,65.61
2022-08-03T03:54:25.507Z,65.94
2022-08-03T03:57:51.059Z,65.69
2022-08-03T04:01:15.584Z,65.91
2022-08-03T04:04:58.485Z,65.93
2022-08-03T04:08:40.916Z,66.30
2022-08-03T04:12:07.088Z,66.09
2022-08-03T04:15:29.445Z,66.01
2022-08-03T04:19:06.143Z,66.47
2022-08-03T04:22:32.013Z,66.14
2022-08-03T04:25:56.211Z,65.24
2022-08-03T04:29:19.597Z,64.89
2022-08-03T04:32:45.896Z,64.85
2022-08-03T04:36:09.553Z,64.62
2022-08-03T04:39:32.177Z,64.79
2022-08-03T04:42:58.550Z,64.79
2022-08-03T04:46:26.140Z,63.77
2022-08-03T04:49:51.801Z,63.60
2022-08-03T04:53:14.615Z,62.65
2022-08-03T04:56:36.440Z,62.32
2022-08-03T05:00:04.137Z,61.81
2022-08-03T05:03:28.228Z,61.16
2022-08-03T05:06:55.160Z,60.88
2022-08-03T05:10:18.678Z,60.36
2022-08-03T05:13:40.219Z,59.85
2022-08-03T05:17:07.072Z,59.71
2022-08-03T05:20:28.599Z,59.27
2022-08-03T05:23:50.417Z,58.34
2022-08-03T05:27:17.492Z,58.14
2022-08-03T05:30:42.161Z,57.97
2022-08-03T05:34:03.881Z,57.51
2022-08-03T05:37:25.438Z,57.42
2022-08-03T05:40:57.423Z,57.41
2022-08-03T05:44:28.741Z,58.18
2022-08-03T05:47:56.117Z,56.79
2022-08-03T05:51:18.854Z,57.57
2022-08-03T05:54:56.917Z,56.78
2022-08-03T05:58:19.359Z,56.35
2022-08-03T06:01:40.938Z,55.94
2022-08-03T06:05:03.206Z,56.66
2022-08-03T06:08:27.238Z,55.46
2022-08-03T06:11:48.812Z,54.78
2022-08-03T06:15:11.691Z,55.28
2022-08-03T06:18:35.935Z,55.02
2022-08-03T06:21:57.490Z,54.70
2022-08-03T06:25:21.152Z,54.82
2022-08-03T06:28:51.424Z,54.66
2022-08-03T06:32:18.869Z,55.12
2022-08-03T06:35:46.801Z,54.71
2022-08-03T06:39:17.590Z,54.83
2022-08-03T06:42:44.132Z,54.32
2022-08-03T06:46:08.459Z,54.51
2022-08-03T06:49:32.555Z,53.51
2022-08-03T06:52:54.314Z,52.57
2022-08-03T06:56:23.143Z,52.14
2022-08-03T07:00:09.252Z,52.59
2022-08-03T07:03:30.588Z,51.62
2022-08-03T07:06:52.485Z,51.50
2022-08-03T07:10:16.154Z,51.67
2022-08-03T07:13:41.324Z,50.87
2022-08-03T07:17:11.779Z,49.26
2022-08-03T07:20:40.865Z,50.46
2022-08-03T07:24:02.520Z,50.74
2022-08-03T07:27:28.480Z,48.79
2022-08-03T07:30:50.124Z,48.49
2022-08-03T07:34:11.879Z,47.69
2022-08-03T07:37:33.634Z,47.20
2022-08-03T07:40:59.592Z,47.78
2022-08-03T07:44:21.234Z,46.42
2022-08-03T07:47:42.992Z,46.40
2022-08-03T07:51:17.417Z,45.66
2022-08-03T07:54:41.295Z,47.14
2022-08-03T07:58:07.762Z,46.06
2022-08-03T08:01:30.110Z,45.77
2022-08-03T08:05:01.006Z,44.48
2022-08-03T08:08:25.504Z,45.06
2022-08-03T08:11:49.631Z,44.51
2022-08-03T08:15:13.467Z,44.37
2022-08-03T08:18:37.777Z,45.96
2022-08-03T08:22:02.534Z,44.48
2022-08-03T08:25:24.680Z,43.06
2022-08-03T08:28:46.397Z,44.09
2022-08-03T08:32:08.023Z,45.93
2022-08-03T08:35:31.821Z,45.94
2022-08-03T08:38:55.799Z,44.19
2022-08-03T08:42:19.916Z,43.91
2022-08-03T08:45:41.792Z,42.36
2022-08-03T08:49:07.488Z,43.34
2022-08-03T08:52:35.860Z,42.74
2022-08-03T08:56:02.245Z,44.16
2022-08-03T08:59:27.217Z,43.72
2022-08-03T09:03:09.164Z,44.48
2022-08-03T09:06:33.228Z,44.01
2022-08-03T09:10:08.297Z,42.55
2022-08-03T09:13:37.725Z,40.65
2022-08-03T09:17:03.633Z,41.92
2022-08-03T09:20:29.394Z,41.91
2022-08-03T09:24:03.288Z,41.07
2022-08-03T09:27:28.798Z,39.65
2022-08-03T09:31:00.127Z,38.07
2022-08-03T09:34:25.893Z,38.95
2022-08-03T09:38:14.085Z,39.16
2022-08-03T09:41:35.906Z,41.12
2022-08-03T09:45:00.621Z,40.95
2022-08-03T09:48:24.602Z,39.56
2022-08-03T09:52:32.116Z,39.44
2022-08-03T09:56:35.002Z,41.16
2022-08-03T09:59:14.144Z,40.87
2022-08-03T10:02:39.698Z,40.64
2022-08-03T10:06:19.698Z,40.79
2022-08-03T10:09:57.551Z,37.62
2022-08-03T10:13:20.070Z,37.37
2022-08-03T10:16:41.602Z,37.45
2022-08-03T10:20:06.812Z,36.60
2022-08-03T10:23:33.449Z,35.92
2022-08-03T10:27:09.473Z,35.67
2022-08-03T10:30:35.438Z,36.13
2022-08-03T10:33:59.360Z,35.02
2022-08-03T10:37:26.091Z,34.63
2022-08-03T10:40:55.930Z,34.38
2022-08-03T10:44:24.420Z,36.41
2022-08-03T10:47:53.149Z,36.59
2022-08-03T10:51:19.906Z,37.03
2022-08-03T10:55:01.220Z,36.58
2022-08-03T10:58:53.318Z,38.86
2022-08-03T11:02:41.647Z,39.78
2022-08-03T11:06:24.740Z,39.53
2022-08-03T11:09:50.831Z,36.71
2022-08-03T11:13:17.006Z,36.04
2022-08-03T11:16:43.516Z,36.92
2022-08-03T11:20:06.226Z,37.53
2022-08-03T11:24:04.942Z,38.22
2022-08-03T11:27:30.701Z,39.35
2022-08-03T11:30:53.383Z,38.89
2022-08-03T11:34:16.705Z,37.15
2022-08-03T11:38:05.024Z,38.18
2022-08-03T11:41:45.538Z,38.48
2022-08-03T11:45:10.630Z,36.04
2022-08-03T11:48:40.045Z,33.23
2022-08-03T11:52:01.677Z,35.89
2022-08-03T11:55:28.995Z,34.48
2022-08-03T11:59:14.321Z,34.38
2022-08-03T12:02:39.035Z,35.06
2022-08-03T12:06:12.863Z,34.57
2022-08-03T12:09:36.219Z,34.92
2022-08-03T12:12:59.401Z,34.27
2022-08-03T12:16:25.148Z,34.02
2022-08-03T12:19:48.992Z,34.51
2022-08-03T12:23:13.236Z,34.42
2022-08-03T12:26:59.317Z,34.44
2022-08-03T12:30:23.866Z,34.09
2022-08-03T12:34:01.920Z,34.25
2022-08-03T12:37:25.880Z,34.46
2022-08-03T12:40:58.803Z,34.10
2022-08-03T12:44:30.068Z,33.85
2022-08-03T12:48:10.955Z,33.53
2022-08-03T12:51:58.015Z,33.03
2022-08-03T12:55:23.026Z,32.68
2022-08-03T12:58:44.570Z,33.25
2022-08-03T13:02:18.430Z,33.51
2022-08-03T13:05:47.261Z,33.67
2022-08-03T13:09:11.301Z,33.58
2022-08-03T13:12:36.218Z,34.59
2022-08-03T13:16:00.460Z,33.48
2022-08-03T13:19:22.133Z,33.47
2022-08-03T13:22:47.420Z,34.05
2022-08-03T13:26:12.035Z,34.11
2022-08-03T13:29:34.787Z,33.89
2022-08-03T13:32:58.267Z,33.57
2022-08-03T13:36:20.671Z,34.03
2022-08-03T13:39:59.800Z,33.40
2022-08-03T13:43:24.419Z,33.06
2022-08-03T13:46:47.041Z,32.76
2022-08-03T13:50:11.740Z,32.66
2022-08-03T13:53:33.438Z,32.96
2022-08-03T13:56:57.820Z,33.16
2022-08-03T14:00:27.226Z,33.15
2022-08-03T14:03:56.516Z,31.92
2022-08-03T14:07:18.434Z,32.56
2022-08-03T14:10:43.218Z,32.35
2022-08-03T14:14:04.786Z,32.13
2022-08-03T14:17:26.503Z,31.14
2022-08-03T14:21:11.738Z,31.95
2022-08-03T14:24:35.795Z,31.47
2022-08-03T14:27:57.478Z,31.07
2022-08-03T14:32:11.859Z,31.50
2022-08-03T14:35:01.670Z,31.14
2022-08-03T14:38:25.817Z,30.90
2022-08-03T14:41:49.970Z,31.48
2022-08-03T14:45:20.516Z,28.75
2022-08-03T14:50:24.961Z,29.02
2022-08-03T14:52:28.736Z,29.29
2022-08-03T14:55:54.898Z,29.76
2022-08-03T14:59:18.707Z,29.99
2022-08-03T15:02:40.280Z,29.83
2022-08-03T15:06:01.872Z,29.39
2022-08-03T15:09:25.769Z,29.53
2022-08-03T15:12:49.784Z,30.49
2022-08-03T15:16:13.653Z,31.35
2022-08-03T15:20:03.628Z,31.15
2022-08-03T15:23:19.659Z,31.78
2022-08-03T15:26:44.197Z,30.23
2022-08-03T15:30:10.148Z,31.35
2022-08-03T15:33:35.223Z,32.35
2022-08-03T15:36:56.976Z,33.58
2022-08-03T15:40:21.033Z,33.98
2022-08-03T15:43:47.526Z,34.10
2022-08-03T15:47:09.506Z,31.17
2022-08-03T15:50:34.984Z,31.14
2022-08-03T15:53:57.463Z,32.31
2022-08-03T15:57:19.672Z,32.30
2022-08-03T16:00:42.591Z,32.30
2022-08-03T16:04:04.495Z,32.72
2022-08-03T16:08:02.502Z,32.55
2022-08-03T16:11:25.821Z,32.10
2022-08-03T16:14:53.731Z,32.40
2022-08-03T16:18:18.639Z,31.95
2022-08-03T16:21:48.394Z,32.08
2022-08-03T16:25:16.105Z,31.93
2022-08-03T16:28:38.757Z,31.89
2022-08-03T16:32:09.404Z,32.23
2022-08-03T16:35:31.350Z,32.87
2022-08-03T16:38:52.946Z,32.74
2022-08-03T16:42:16.879Z,32.71
2022-08-03T16:45:43.294Z,32.34
2022-08-03T16:49:07.333Z,31.82
2022-08-03T16:52:28.901Z,32.72
2022-08-03T16:55:53.515Z,32.56
2022-08-03T16:59:17.891Z,33.05
2022-08-03T17:02:48.304Z,33.19
2022-08-03T17:06:10.106Z,33.68
2022-08-03T17:09:38.904Z,33.10
2022-08-03T17:13:02.848Z,36.97
2022-08-03T17:16:27.019Z,38.84
2022-08-03T17:19:54.182Z,35.61
2022-08-03T17:23:35.205Z,34.92
2022-08-03T17:27:02.664Z,34.80
2022-08-03T17:30:44.205Z,34.76
2022-08-03T17:34:10.790Z,34.95
2022-08-03T17:37:58.169Z,35.07
2022-08-03T17:41:19.738Z,35.49
2022-08-03T17:44:46.989Z,35.96
2022-08-03T17:48:08.942Z,36.35
2022-08-03T17:51:53.129Z,36.70
2022-08-03T17:55:55.587Z,37.02
2022-08-03T17:59:09.972Z,37.20
2022-08-03T18:02:50.276Z,37.13
2022-08-03T18:06:15.851Z,37.53
2022-08-03T18:10:06.453Z,37.68
2022-08-03T18:13:57.943Z,38.40
2022-08-03T18:17:54.557Z,38.86
2022-08-03T18:21:17.019Z,39.26
2022-08-03T18:24:41.362Z,39.81
2022-08-03T18:28:06.104Z,39.99
2022-08-03T18:31:59.682Z,40.31
2022-08-03T18:35:15.105Z,40.74
2022-08-03T18:38:39.864Z,41.15
2022-08-03T18:42:02.789Z,41.16
2022-08-03T18:45:57.158Z,41.73
2022-08-03T18:49:19.707Z,42.70
2022-08-03T18:53:00.653Z,43.35
2022-08-03T18:56:40.612Z,44.19
2022-08-03T19:00:14.482Z,44.79
2022-08-03T19:03:43.530Z,45.37
2022-08-03T19:07:11.896Z,45.55
2022-08-03T19:10:44.172Z,45.96
2022-08-03T19:14:28.424Z,46.43
2022-08-03T19:17:52.924Z,47.00
2022-08-03T19:21:16.398Z,48.30
2022-08-03T19:24:47.758Z,48.78
2022-08-03T19:28:09.440Z,49.06
2022-08-03T19:31:35.433Z,48.69
2022-08-03T19:35:02.254Z,48.43
2022-08-03T19:38:28.802Z,48.58
2022-08-03T19:41:57.115Z,49.12
2022-08-03T19:46:04.747Z,48.91
2022-08-03T19:50:05.798Z,49.01
2022-08-03T19:53:14.228Z,49.22
2022-08-03T19:56:42.188Z,49.78
2022-08-03T20:00:12.649Z,49.30
2022-08-03T20:03:43.298Z,48.92
2022-08-03T20:07:05.681Z,48.90
2022-08-03T20:10:32.163Z,49.48
2022-08-03T20:13:54.945Z,49.97
2022-08-03T20:17:16.455Z,49.64
2022-08-03T20:20:49.244Z,50.06
2022-08-03T20:24:24.667Z,50.02
2022-08-03T20:28:07.919Z,50.12
2022-08-03T20:31:36.153Z,50.18
2022-08-03T20:34:58.634Z,50.18
2022-08-03T20:38:20.391Z,51.17
2022-08-03T20:41:48.964Z,51.87
2022-08-03T20:45:15.159Z,52.57
2022-08-03T20:48:54.127Z,51.77
2022-08-03T20:52:18.875Z,51.46
2022-08-03T20:55:48.048Z,51.18
2022-08-03T20:59:28.800Z,51.75
2022-08-03T21:02:52.127Z,52.04
2022-08-03T21:06:19.282Z,51.80
2022-08-03T21:13:12.580Z,52.22
2022-08-03T21:13:48.557Z,53.12
2022-08-03T21:17:31.292Z,53.50
2022-08-03T21:21:03.182Z,55.09
2022-08-03T21:24:30.497Z,55.08
2022-08-03T21:27:52.087Z,55.69
2022-08-03T21:31:14.251Z,55.16
2022-08-03T21:34:45.549Z,54.91
2022-08-03T21:38:19.507Z,54.62
2022-08-03T21:41:41.214Z,54.47
2022-08-03T21:45:16.907Z,54.11
2022-08-03T21:48:41.522Z,54.58
2022-08-03T21:52:06.189Z,54.95
2022-08-03T21:55:29.049Z,55.15
2022-08-03T21:58:54.807Z,55.41
2022-08-03T22:02:22.808Z,55.12
2022-08-03T22:05:46.213Z,55.36
2022-08-03T22:09:12.683Z,55.47
2022-08-03T22:12:35.281Z,54.88
2022-08-03T22:15:56.960Z,53.70
2022-08-03T22:19:18.525Z,53.42
2022-08-03T22:22:41.076Z,55.03
2022-08-03T22:26:32.189Z,56.09
2022-08-03T22:29:54.088Z,56.73
2022-08-03T22:33:16.193Z,56.35
2022-08-03T22:36:37.822Z,56.09
2022-08-03T22:40:04.478Z,55.91
2022-08-03T22:43:27.067Z,55.00
2022-08-03T22:46:50.890Z,55.65
2022-08-03T22:50:32.690Z,55.90
2022-08-03T22:53:56.281Z,56.64
2022-08-03T22:57:21.665Z,56.48
2022-08-03T23:00:53.791Z,56.34
2022-08-03T23:04:20.711Z,56.18
2022-08-03T23:07:44.170Z,56.30
2022-08-03T23:11:10.734Z,56.31
2022-08-03T23:14:40.598Z,55.50
2022-08-03T23:18:06.355Z,57.03
2022-08-03T23:22:00.428Z,56.75
2022-08-03T23:25:11.501Z,56.51
2022-08-03T23:28:34.807Z,56.31
2022-08-03T23:31:57.509Z,56.02
2022-08-03T23:36:27.840Z,56.77
2022-08-03T23:39:19.663Z,57.51
2022-08-03T23:42:45.374Z,57.85
2022-08-03T23:46:08.294Z,57.39
2022-08-03T23:49:29.866Z,58.27
2022-08-03T23:53:02.834Z,58.30
2022-08-03T23:56:44.327Z,58.30
